sensor_id;sensor_type;location;lat;lon;timestamp;temperature;humidity
40702;DHT22;26387;50.114;8.662;2022-11-20T00:02:14;6.50;91.70
40702;DHT22;26387;50.114;8.662;2022-11-20T00:04:39;6.50;92.00
40702;DHT22;26387;50.114;8.662;2022-11-20T00:07:05;6.40;91.90
40702;DHT22;26387;50.114;8.662;2022-11-20T00:09:30;6.40;92.10
40702;DHT22;26387;50.114;8.662;2022-11-20T00:11:56;6.40;92.00
40702;DHT22;26387;50.114;8.662;2022-11-20T00:14:21;6.40;92.00
40702;DHT22;26387;50.114;8.662;2022-11-20T00:16:47;6.40;92.10
40702;DHT22;26387;50.114;8.662;2022-11-20T00:19:12;6.40;92.20
40702;DHT22;26387;50.114;8.662;2022-11-20T00:21:37;6.40;92.00
40702;DHT22;26387;50.114;8.662;2022-11-20T00:24:03;6.40;91.90
40702;DHT22;26387;50.114;8.662;2022-11-20T00:26:28;6.40;92.00
40702;DHT22;26387;50.114;8.662;2022-11-20T00:28:55;6.50;92.00
40702;DHT22;26387;50.114;8.662;2022-11-20T00:31:21;6.40;92.00
40702;DHT22;26387;50.114;8.662;2022-11-20T00:33:47;6.40;92.00
40702;DHT22;26387;50.114;8.662;2022-11-20T00:36:23;6.40;92.00
40702;DHT22;26387;50.114;8.662;2022-11-20T00:38:55;6.40;92.00
40702;DHT22;26387;50.114;8.662;2022-11-20T00:41:21;6.40;92.10
40702;DHT22;26387;50.114;8.662;2022-11-20T00:43:47;6.40;92.30
40702;DHT22;26387;50.114;8.662;2022-11-20T00:46:13;6.40;92.00
40702;DHT22;26387;50.114;8.662;2022-11-20T00:48:39;6.50;92.10
40702;DHT22;26387;50.114;8.662;2022-11-20T00:51:04;6.50;91.80
40702;DHT22;26387;50.114;8.662;2022-11-20T00:53:30;6.50;91.90
40702;DHT22;26387;50.114;8.662;2022-11-20T00:55:56;6.50;92.00
40702;DHT22;26387;50.114;8.662;2022-11-20T00:58:23;6.50;91.90
40702;DHT22;26387;50.114;8.662;2022-11-20T01:00:48;6.50;91.80
40702;DHT22;26387;50.114;8.662;2022-11-20T01:03:15;6.50;91.90
40702;DHT22;26387;50.114;8.662;2022-11-20T01:05:42;6.50;92.10
40702;DHT22;26387;50.114;8.662;2022-11-20T01:08:08;6.50;92.20
40702;DHT22;26387;50.114;8.662;2022-11-20T01:10:33;6.50;92.20
40702;DHT22;26387;50.114;8.662;2022-11-20T01:12:59;6.50;92.30
40702;DHT22;26387;50.114;8.662;2022-11-20T01:15:53;6.50;92.30
40702;DHT22;26387;50.114;8.662;2022-11-20T01:18:19;6.50;92.40
40702;DHT22;26387;50.114;8.662;2022-11-20T01:20:44;6.50;92.40
40702;DHT22;26387;50.114;8.662;2022-11-20T01:23:09;6.50;92.50
40702;DHT22;26387;50.114;8.662;2022-11-20T01:25:35;6.50;92.50
40702;DHT22;26387;50.114;8.662;2022-11-20T01:28:00;6.50;92.70
40702;DHT22;26387;50.114;8.662;2022-11-20T01:30:26;6.50;93.00
40702;DHT22;26387;50.114;8.662;2022-11-20T01:32:51;6.40;92.90
40702;DHT22;26387;50.114;8.662;2022-11-20T01:35:17;6.40;93.10
40702;DHT22;26387;50.114;8.662;2022-11-20T01:37:42;6.30;93.00
40702;DHT22;26387;50.114;8.662;2022-11-20T01:40:08;6.30;93.30
40702;DHT22;26387;50.114;8.662;2022-11-20T01:42:33;6.30;93.30
40702;DHT22;26387;50.114;8.662;2022-11-20T01:48:02;6.30;93.50
40702;DHT22;26387;50.114;8.662;2022-11-20T01:50:28;6.40;93.50
40702;DHT22;26387;50.114;8.662;2022-11-20T01:53:02;6.30;93.80
40702;DHT22;26387;50.114;8.662;2022-11-20T01:55:31;6.30;94.00
40702;DHT22;26387;50.114;8.662;2022-11-20T01:57:58;6.40;93.90
40702;DHT22;26387;50.114;8.662;2022-11-20T02:00:24;6.30;93.80
40702;DHT22;26387;50.114;8.662;2022-11-20T02:07:50;6.30;94.30
40702;DHT22;26387;50.114;8.662;2022-11-20T02:10:15;6.30;94.40
40702;DHT22;26387;50.114;8.662;2022-11-20T02:12:41;6.30;94.30
40702;DHT22;26387;50.114;8.662;2022-11-20T02:15:25;6.20;94.40
40702;DHT22;26387;50.114;8.662;2022-11-20T02:17:51;6.10;94.60
40702;DHT22;26387;50.114;8.662;2022-11-20T02:20:16;6.10;94.70
40702;DHT22;26387;50.114;8.662;2022-11-20T02:22:50;6.20;94.70
40702;DHT22;26387;50.114;8.662;2022-11-20T02:25:17;6.20;94.80
40702;DHT22;26387;50.114;8.662;2022-11-20T02:27:43;6.30;94.80
40702;DHT22;26387;50.114;8.662;2022-11-20T02:30:09;6.30;94.50
40702;DHT22;26387;50.114;8.662;2022-11-20T02:32:37;6.30;94.60
40702;DHT22;26387;50.114;8.662;2022-11-20T02:35:35;6.30;94.70
40702;DHT22;26387;50.114;8.662;2022-11-20T02:37:55;6.30;94.50
40702;DHT22;26387;50.114;8.662;2022-11-20T02:40:21;6.30;94.50
40702;DHT22;26387;50.114;8.662;2022-11-20T02:42:47;6.30;94.30
40702;DHT22;26387;50.114;8.662;2022-11-20T02:45:12;6.30;94.60
40702;DHT22;26387;50.114;8.662;2022-11-20T02:47:38;6.30;94.80
40702;DHT22;26387;50.114;8.662;2022-11-20T02:50:04;6.30;94.70
40702;DHT22;26387;50.114;8.662;2022-11-20T02:52:29;6.30;94.50
40702;DHT22;26387;50.114;8.662;2022-11-20T02:54:55;6.30;94.30
40702;DHT22;26387;50.114;8.662;2022-11-20T02:57:20;6.30;94.50
40702;DHT22;26387;50.114;8.662;2022-11-20T02:59:46;6.30;94.30
40702;DHT22;26387;50.114;8.662;2022-11-20T03:02:11;6.30;94.30
40702;DHT22;26387;50.114;8.662;2022-11-20T03:04:37;6.30;94.30
40702;DHT22;26387;50.114;8.662;2022-11-20T03:07:02;6.20;93.70
40702;DHT22;26387;50.114;8.662;2022-11-20T03:09:28;6.10;93.80
40702;DHT22;26387;50.114;8.662;2022-11-20T03:11:53;6.10;93.90
40702;DHT22;26387;50.114;8.662;2022-11-20T03:14:19;6.10;93.90
40702;DHT22;26387;50.114;8.662;2022-11-20T03:16:44;6.00;94.10
40702;DHT22;26387;50.114;8.662;2022-11-20T03:19:11;6.00;94.10
40702;DHT22;26387;50.114;8.662;2022-11-20T03:21:36;6.10;94.20
40702;DHT22;26387;50.114;8.662;2022-11-20T03:24:02;6.10;94.30
40702;DHT22;26387;50.114;8.662;2022-11-20T03:26:27;6.10;94.20
40702;DHT22;26387;50.114;8.662;2022-11-20T03:28:57;6.10;94.40
40702;DHT22;26387;50.114;8.662;2022-11-20T03:31:27;6.10;94.20
40702;DHT22;26387;50.114;8.662;2022-11-20T03:33:53;6.00;94.00
40702;DHT22;26387;50.114;8.662;2022-11-20T03:36:19;6.10;94.00
40702;DHT22;26387;50.114;8.662;2022-11-20T03:38:45;6.00;93.90
40702;DHT22;26387;50.114;8.662;2022-11-20T03:41:11;6.00;93.70
40702;DHT22;26387;50.114;8.662;2022-11-20T03:43:37;6.10;93.80
40702;DHT22;26387;50.114;8.662;2022-11-20T03:46:03;6.10;94.30
40702;DHT22;26387;50.114;8.662;2022-11-20T03:48:29;6.10;93.90
40702;DHT22;26387;50.114;8.662;2022-11-20T03:51:13;6.10;94.00
40702;DHT22;26387;50.114;8.662;2022-11-20T03:53:40;6.10;93.80
40702;DHT22;26387;50.114;8.662;2022-11-20T03:56:05;6.10;93.80
40702;DHT22;26387;50.114;8.662;2022-11-20T03:58:32;6.10;94.00
40702;DHT22;26387;50.114;8.662;2022-11-20T04:00:57;6.10;94.20
40702;DHT22;26387;50.114;8.662;2022-11-20T04:03:23;6.10;94.10
40702;DHT22;26387;50.114;8.662;2022-11-20T04:05:48;6.10;94.30
40702;DHT22;26387;50.114;8.662;2022-11-20T04:08:14;6.10;94.10
40702;DHT22;26387;50.114;8.662;2022-11-20T04:10:39;6.10;94.40
40702;DHT22;26387;50.114;8.662;2022-11-20T04:13:05;6.20;94.20
40702;DHT22;26387;50.114;8.662;2022-11-20T04:15:30;6.10;93.80
40702;DHT22;26387;50.114;8.662;2022-11-20T04:17:56;6.00;94.10
40702;DHT22;26387;50.114;8.662;2022-11-20T04:20:21;6.10;94.50
40702;DHT22;26387;50.114;8.662;2022-11-20T04:22:47;6.10;94.30
40702;DHT22;26387;50.114;8.662;2022-11-20T04:25:12;6.10;94.30
40702;DHT22;26387;50.114;8.662;2022-11-20T04:27:37;6.10;94.30
40702;DHT22;26387;50.114;8.662;2022-11-20T04:30:03;6.10;94.10
40702;DHT22;26387;50.114;8.662;2022-11-20T04:32:28;6.10;94.00
40702;DHT22;26387;50.114;8.662;2022-11-20T04:34:54;6.10;94.30
40702;DHT22;26387;50.114;8.662;2022-11-20T04:37:19;6.10;94.50
40702;DHT22;26387;50.114;8.662;2022-11-20T04:39:45;6.10;94.30
40702;DHT22;26387;50.114;8.662;2022-11-20T04:42:10;6.10;94.70
40702;DHT22;26387;50.114;8.662;2022-11-20T04:44:54;6.20;94.40
40702;DHT22;26387;50.114;8.662;2022-11-20T04:47:20;6.20;94.30
40702;DHT22;26387;50.114;8.662;2022-11-20T04:49:46;6.30;94.20
40702;DHT22;26387;50.114;8.662;2022-11-20T04:52:11;6.30;94.00
40702;DHT22;26387;50.114;8.662;2022-11-20T04:54:37;6.30;93.90
40702;DHT22;26387;50.114;8.662;2022-11-20T04:57:02;6.30;94.10
40702;DHT22;26387;50.114;8.662;2022-11-20T04:59:28;6.30;94.10
40702;DHT22;26387;50.114;8.662;2022-11-20T05:01:53;6.30;94.00
40702;DHT22;26387;50.114;8.662;2022-11-20T05:04:18;6.30;94.10
40702;DHT22;26387;50.114;8.662;2022-11-20T05:06:44;6.30;94.00
40702;DHT22;26387;50.114;8.662;2022-11-20T05:09:11;6.30;94.00
40702;DHT22;26387;50.114;8.662;2022-11-20T05:11:36;6.30;94.00
40702;DHT22;26387;50.114;8.662;2022-11-20T05:14:02;6.40;93.90
40702;DHT22;26387;50.114;8.662;2022-11-20T05:16:27;6.40;94.00
40702;DHT22;26387;50.114;8.662;2022-11-20T05:18:53;6.30;94.10
40702;DHT22;26387;50.114;8.662;2022-11-20T05:21:19;6.30;94.00
40702;DHT22;26387;50.114;8.662;2022-11-20T05:23:45;6.30;94.30
40702;DHT22;26387;50.114;8.662;2022-11-20T05:26:14;6.30;94.10
40702;DHT22;26387;50.114;8.662;2022-11-20T05:28:40;6.30;94.10
40702;DHT22;26387;50.114;8.662;2022-11-20T05:31:06;6.30;94.20
40702;DHT22;26387;50.114;8.662;2022-11-20T05:33:32;6.30;94.10
40702;DHT22;26387;50.114;8.662;2022-11-20T05:35:58;6.30;94.00
40702;DHT22;26387;50.114;8.662;2022-11-20T05:38:23;6.40;94.10
40702;DHT22;26387;50.114;8.662;2022-11-20T05:40:49;6.40;94.00
40702;DHT22;26387;50.114;8.662;2022-11-20T05:43:14;6.40;94.10
40702;DHT22;26387;50.114;8.662;2022-11-20T05:45:40;6.40;94.40
40702;DHT22;26387;50.114;8.662;2022-11-20T05:48:05;6.40;94.20
40702;DHT22;26387;50.114;8.662;2022-11-20T05:50:30;6.40;94.30
40702;DHT22;26387;50.114;8.662;2022-11-20T05:52:59;6.40;94.00
40702;DHT22;26387;50.114;8.662;2022-11-20T05:55:25;6.40;94.10
40702;DHT22;26387;50.114;8.662;2022-11-20T05:57:52;6.30;94.30
40702;DHT22;26387;50.114;8.662;2022-11-20T06:00:17;6.20;94.70
40702;DHT22;26387;50.114;8.662;2022-11-20T06:02:43;6.20;94.40
40702;DHT22;26387;50.114;8.662;2022-11-20T06:05:08;6.20;94.30
40702;DHT22;26387;50.114;8.662;2022-11-20T06:07:33;6.10;94.50
40702;DHT22;26387;50.114;8.662;2022-11-20T06:09:59;6.00;94.50
40702;DHT22;26387;50.114;8.662;2022-11-20T06:12:24;6.00;94.60
40702;DHT22;26387;50.114;8.662;2022-11-20T06:14:50;6.10;94.70
40702;DHT22;26387;50.114;8.662;2022-11-20T06:17:15;6.10;94.60
40702;DHT22;26387;50.114;8.662;2022-11-20T06:19:41;6.00;95.00
40702;DHT22;26387;50.114;8.662;2022-11-20T06:22:06;6.00;95.00
40702;DHT22;26387;50.114;8.662;2022-11-20T06:24:31;6.00;95.00
40702;DHT22;26387;50.114;8.662;2022-11-20T06:26:57;6.00;95.00
40702;DHT22;26387;50.114;8.662;2022-11-20T06:29:22;6.00;95.50
40702;DHT22;26387;50.114;8.662;2022-11-20T06:31:48;6.10;95.20
40702;DHT22;26387;50.114;8.662;2022-11-20T06:34:13;6.10;95.00
40702;DHT22;26387;50.114;8.662;2022-11-20T06:36:39;6.10;95.10
40702;DHT22;26387;50.114;8.662;2022-11-20T06:39:04;6.10;95.00
40702;DHT22;26387;50.114;8.662;2022-11-20T06:41:30;6.20;94.90
40702;DHT22;26387;50.114;8.662;2022-11-20T06:43:55;6.10;95.20
40702;DHT22;26387;50.114;8.662;2022-11-20T06:46:21;6.10;95.20
40702;DHT22;26387;50.114;8.662;2022-11-20T06:48:47;6.20;95.00
40702;DHT22;26387;50.114;8.662;2022-11-20T06:51:12;6.10;95.20
40702;DHT22;26387;50.114;8.662;2022-11-20T06:53:38;6.20;95.20
40702;DHT22;26387;50.114;8.662;2022-11-20T06:56:04;6.20;95.00
40702;DHT22;26387;50.114;8.662;2022-11-20T06:58:30;6.20;95.00
40702;DHT22;26387;50.114;8.662;2022-11-20T07:01:06;6.20;94.80
40702;DHT22;26387;50.114;8.662;2022-11-20T07:03:32;6.20;94.80
40702;DHT22;26387;50.114;8.662;2022-11-20T07:05:58;6.20;94.90
40702;DHT22;26387;50.114;8.662;2022-11-20T07:08:25;6.20;94.90
40702;DHT22;26387;50.114;8.662;2022-11-20T07:10:50;6.30;95.00
40702;DHT22;26387;50.114;8.662;2022-11-20T07:13:16;6.20;95.00
40702;DHT22;26387;50.114;8.662;2022-11-20T07:15:41;6.20;95.20
40702;DHT22;26387;50.114;8.662;2022-11-20T07:18:07;6.10;95.20
40702;DHT22;26387;50.114;8.662;2022-11-20T07:20:32;6.00;95.80
40702;DHT22;26387;50.114;8.662;2022-11-20T07:22:58;6.00;95.70
40702;DHT22;26387;50.114;8.662;2022-11-20T07:25:24;6.00;95.90
40702;DHT22;26387;50.114;8.662;2022-11-20T07:27:49;6.00;95.70
40702;DHT22;26387;50.114;8.662;2022-11-20T07:30:16;6.10;95.70
40702;DHT22;26387;50.114;8.662;2022-11-20T07:32:41;6.20;95.80
40702;DHT22;26387;50.114;8.662;2022-11-20T07:35:07;6.30;95.80
40702;DHT22;26387;50.114;8.662;2022-11-20T07:37:35;6.30;95.80
40702;DHT22;26387;50.114;8.662;2022-11-20T07:40:01;6.20;96.00
40702;DHT22;26387;50.114;8.662;2022-11-20T07:42:26;6.20;96.40
40702;DHT22;26387;50.114;8.662;2022-11-20T07:44:51;6.20;96.50
40702;DHT22;26387;50.114;8.662;2022-11-20T07:47:17;6.30;96.40
40702;DHT22;26387;50.114;8.662;2022-11-20T07:49:42;6.40;96.40
40702;DHT22;26387;50.114;8.662;2022-11-20T07:52:08;6.50;96.40
40702;DHT22;26387;50.114;8.662;2022-11-20T07:54:33;6.50;96.00
40702;DHT22;26387;50.114;8.662;2022-11-20T07:56:59;6.50;96.20
40702;DHT22;26387;50.114;8.662;2022-11-20T07:59:24;6.60;96.40
40702;DHT22;26387;50.114;8.662;2022-11-20T08:01:49;6.70;96.40
40702;DHT22;26387;50.114;8.662;2022-11-20T08:04:15;6.70;96.50
40702;DHT22;26387;50.114;8.662;2022-11-20T08:06:41;6.80;96.50
40702;DHT22;26387;50.114;8.662;2022-11-20T08:09:07;6.80;96.20
40702;DHT22;26387;50.114;8.662;2022-11-20T08:11:32;6.90;96.10
40702;DHT22;26387;50.114;8.662;2022-11-20T08:14:16;6.90;96.00
40702;DHT22;26387;50.114;8.662;2022-11-20T08:16:43;7.00;95.80
40702;DHT22;26387;50.114;8.662;2022-11-20T08:19:09;6.90;95.70
40702;DHT22;26387;50.114;8.662;2022-11-20T08:21:34;7.00;95.70
40702;DHT22;26387;50.114;8.662;2022-11-20T08:24:00;7.00;95.80
40702;DHT22;26387;50.114;8.662;2022-11-20T08:26:25;7.00;95.50
40702;DHT22;26387;50.114;8.662;2022-11-20T08:28:57;7.00;95.70
40702;DHT22;26387;50.114;8.662;2022-11-20T08:31:23;7.00;95.90
40702;DHT22;26387;50.114;8.662;2022-11-20T08:33:49;7.10;95.90
40702;DHT22;26387;50.114;8.662;2022-11-20T08:36:15;7.10;96.00
40702;DHT22;26387;50.114;8.662;2022-11-20T08:38:40;7.10;96.00
40702;DHT22;26387;50.114;8.662;2022-11-20T08:41:06;7.20;95.90
40702;DHT22;26387;50.114;8.662;2022-11-20T08:43:54;7.20;95.90
40702;DHT22;26387;50.114;8.662;2022-11-20T08:46:20;7.20;95.60
40702;DHT22;26387;50.114;8.662;2022-11-20T08:48:45;7.20;95.80
40702;DHT22;26387;50.114;8.662;2022-11-20T08:51:11;7.20;96.00
40702;DHT22;26387;50.114;8.662;2022-11-20T08:53:37;7.30;95.80
40702;DHT22;26387;50.114;8.662;2022-11-20T08:56:02;7.30;95.70
40702;DHT22;26387;50.114;8.662;2022-11-20T08:58:28;7.40;95.50
40702;DHT22;26387;50.114;8.662;2022-11-20T09:00:53;7.40;95.30
40702;DHT22;26387;50.114;8.662;2022-11-20T09:03:19;7.40;95.40
40702;DHT22;26387;50.114;8.662;2022-11-20T09:05:45;7.40;95.80
40702;DHT22;26387;50.114;8.662;2022-11-20T09:08:10;7.40;95.80
40702;DHT22;26387;50.114;8.662;2022-11-20T09:10:36;7.40;95.90
40702;DHT22;26387;50.114;8.662;2022-11-20T09:13:01;7.40;95.90
40702;DHT22;26387;50.114;8.662;2022-11-20T09:15:27;7.60;96.00
40702;DHT22;26387;50.114;8.662;2022-11-20T09:17:53;7.70;95.70
40702;DHT22;26387;50.114;8.662;2022-11-20T09:34:54;7.80;95.50
40702;DHT22;26387;50.114;8.662;2022-11-20T09:37:19;8.20;94.90
40702;DHT22;26387;50.114;8.662;2022-11-20T09:39:44;8.20;94.80
40702;DHT22;26387;50.114;8.662;2022-11-20T09:42:14;8.30;94.80
40702;DHT22;26387;50.114;8.662;2022-11-20T09:44:56;8.40;95.20
40702;DHT22;26387;50.114;8.662;2022-11-20T10:21:33;7.90;95.90
40702;DHT22;26387;50.114;8.662;2022-11-20T10:29:19;7.80;96.30
40702;DHT22;26387;50.114;8.662;2022-11-20T10:31:52;7.80;96.30
40702;DHT22;26387;50.114;8.662;2022-11-20T10:34:24;7.80;96.10
40702;DHT22;26387;50.114;8.662;2022-11-20T10:36:56;7.80;96.20
40702;DHT22;26387;50.114;8.662;2022-11-20T10:41:57;7.90;96.30
40702;DHT22;26387;50.114;8.662;2022-11-20T10:44:27;7.90;96.20
40702;DHT22;26387;50.114;8.662;2022-11-20T10:47:13;8.00;96.40
40702;DHT22;26387;50.114;8.662;2022-11-20T10:49:38;8.00;96.00
40702;DHT22;26387;50.114;8.662;2022-11-20T10:52:09;7.90;96.20
40702;DHT22;26387;50.114;8.662;2022-11-20T10:54:39;8.00;96.00
40702;DHT22;26387;50.114;8.662;2022-11-20T11:02:19;8.20;95.30
40702;DHT22;26387;50.114;8.662;2022-11-20T11:04:51;8.10;95.60
40702;DHT22;26387;50.114;8.662;2022-11-20T11:07:20;8.10;95.70
40702;DHT22;26387;50.114;8.662;2022-11-20T11:09:48;8.10;95.60
40702;DHT22;26387;50.114;8.662;2022-11-20T11:12:14;8.20;95.70
40702;DHT22;26387;50.114;8.662;2022-11-20T11:14:44;8.30;95.90
40702;DHT22;26387;50.114;8.662;2022-11-20T11:17:18;8.30;95.70
40702;DHT22;26387;50.114;8.662;2022-11-20T11:19:45;8.40;95.60
40702;DHT22;26387;50.114;8.662;2022-11-20T11:22:10;8.30;95.60
40702;DHT22;26387;50.114;8.662;2022-11-20T11:24:43;8.30;95.60
40702;DHT22;26387;50.114;8.662;2022-11-20T11:27:16;8.30;95.30
40702;DHT22;26387;50.114;8.662;2022-11-20T11:29:42;8.30;95.50
40702;DHT22;26387;50.114;8.662;2022-11-20T11:32:12;8.30;95.50
40702;DHT22;26387;50.114;8.662;2022-11-20T11:34:38;8.20;95.70
40702;DHT22;26387;50.114;8.662;2022-11-20T11:37:03;8.30;95.90
40702;DHT22;26387;50.114;8.662;2022-11-20T11:39:30;8.30;95.70
40702;DHT22;26387;50.114;8.662;2022-11-20T11:41:57;8.40;95.80
40702;DHT22;26387;50.114;8.662;2022-11-20T11:44:33;8.50;95.90
40702;DHT22;26387;50.114;8.662;2022-11-20T11:47:22;8.60;95.80
40702;DHT22;26387;50.114;8.662;2022-11-20T11:52:15;8.70;95.10
40702;DHT22;26387;50.114;8.662;2022-11-20T11:54:49;8.70;95.30
40702;DHT22;26387;50.114;8.662;2022-11-20T11:59:46;8.80;95.30
40702;DHT22;26387;50.114;8.662;2022-11-20T12:02:35;8.80;95.20
40702;DHT22;26387;50.114;8.662;2022-11-20T12:05:03;8.90;95.40
40702;DHT22;26387;50.114;8.662;2022-11-20T12:10:08;9.10;95.10
40702;DHT22;26387;50.114;8.662;2022-11-20T12:12:39;9.20;94.60
40702;DHT22;26387;50.114;8.662;2022-11-20T12:15:09;9.40;94.90
40702;DHT22;26387;50.114;8.662;2022-11-20T12:17:36;9.70;94.50
40702;DHT22;26387;50.114;8.662;2022-11-20T12:20:01;9.70;94.00
40702;DHT22;26387;50.114;8.662;2022-11-20T12:25:12;9.60;94.00
40702;DHT22;26387;50.114;8.662;2022-11-20T12:27:52;9.70;93.70
40702;DHT22;26387;50.114;8.662;2022-11-20T12:30:21;9.70;93.80
40702;DHT22;26387;50.114;8.662;2022-11-20T12:33:05;9.60;94.00
40702;DHT22;26387;50.114;8.662;2022-11-20T12:43:16;9.20;95.10
40702;DHT22;26387;50.114;8.662;2022-11-20T13:03:59;9.00;95.10
40702;DHT22;26387;50.114;8.662;2022-11-20T13:06:28;8.80;95.20
40702;DHT22;26387;50.114;8.662;2022-11-20T13:08:54;8.70;95.60
40702;DHT22;26387;50.114;8.662;2022-11-20T13:17:07;8.70;96.00
40702;DHT22;26387;50.114;8.662;2022-11-20T13:19:13;8.70;96.20
40702;DHT22;26387;50.114;8.662;2022-11-20T13:21:41;8.70;96.50
40702;DHT22;26387;50.114;8.662;2022-11-20T13:24:07;8.60;96.60
40702;DHT22;26387;50.114;8.662;2022-11-20T13:26:33;8.60;96.60
40702;DHT22;26387;50.114;8.662;2022-11-20T13:29:03;8.60;96.70
40702;DHT22;26387;50.114;8.662;2022-11-20T13:31:32;8.60;96.90
40702;DHT22;26387;50.114;8.662;2022-11-20T13:33:58;8.70;96.50
40702;DHT22;26387;50.114;8.662;2022-11-20T13:36:26;8.70;96.50
40702;DHT22;26387;50.114;8.662;2022-11-20T13:38:53;8.70;96.50
40702;DHT22;26387;50.114;8.662;2022-11-20T13:41:35;8.70;96.70
40702;DHT22;26387;50.114;8.662;2022-11-20T13:46:44;8.70;97.00
40702;DHT22;26387;50.114;8.662;2022-11-20T13:49:32;8.80;97.00
40702;DHT22;26387;50.114;8.662;2022-11-20T13:52:04;8.80;96.60
40702;DHT22;26387;50.114;8.662;2022-11-20T13:59:49;8.90;96.30
40702;DHT22;26387;50.114;8.662;2022-11-20T14:02:18;8.80;96.30
40702;DHT22;26387;50.114;8.662;2022-11-20T14:04:45;8.80;96.20
40702;DHT22;26387;50.114;8.662;2022-11-20T14:07:12;8.80;96.40
40702;DHT22;26387;50.114;8.662;2022-11-20T14:09:38;8.90;96.40
40702;DHT22;26387;50.114;8.662;2022-11-20T14:12:04;8.90;96.20
40702;DHT22;26387;50.114;8.662;2022-11-20T14:14:30;8.90;96.10
40702;DHT22;26387;50.114;8.662;2022-11-20T14:17:05;9.00;96.20
40702;DHT22;26387;50.114;8.662;2022-11-20T14:19:31;9.00;96.00
40702;DHT22;26387;50.114;8.662;2022-11-20T14:22:08;8.90;96.10
40702;DHT22;26387;50.114;8.662;2022-11-20T14:24:34;8.90;96.30
40702;DHT22;26387;50.114;8.662;2022-11-20T14:27:00;8.90;96.30
40702;DHT22;26387;50.114;8.662;2022-11-20T14:29:29;8.90;96.40
40702;DHT22;26387;50.114;8.662;2022-11-20T14:31:58;8.90;96.40
40702;DHT22;26387;50.114;8.662;2022-11-20T14:34:35;9.00;96.20
40702;DHT22;26387;50.114;8.662;2022-11-20T14:37:04;9.10;96.00
40702;DHT22;26387;50.114;8.662;2022-11-20T14:39:36;9.10;96.30
40702;DHT22;26387;50.114;8.662;2022-11-20T14:42:02;9.00;96.10
40702;DHT22;26387;50.114;8.662;2022-11-20T14:44:32;9.00;96.10
40702;DHT22;26387;50.114;8.662;2022-11-20T14:46:59;9.00;96.10
40702;DHT22;26387;50.114;8.662;2022-11-20T14:49:25;9.10;96.00
40702;DHT22;26387;50.114;8.662;2022-11-20T14:51:58;9.20;95.80
40702;DHT22;26387;50.114;8.662;2022-11-20T14:54:24;9.30;95.70
40702;DHT22;26387;50.114;8.662;2022-11-20T14:56:58;9.30;95.80
40702;DHT22;26387;50.114;8.662;2022-11-20T14:59:34;9.30;95.60
40702;DHT22;26387;50.114;8.662;2022-11-20T15:02:02;9.30;95.50
40702;DHT22;26387;50.114;8.662;2022-11-20T15:04:28;9.20;95.90
40702;DHT22;26387;50.114;8.662;2022-11-20T15:06:55;9.10;96.00
40702;DHT22;26387;50.114;8.662;2022-11-20T15:09:21;9.00;96.20
40702;DHT22;26387;50.114;8.662;2022-11-20T15:11:54;9.00;96.50
40702;DHT22;26387;50.114;8.662;2022-11-20T15:14:20;9.00;96.30
40702;DHT22;26387;50.114;8.662;2022-11-20T15:16:46;9.00;96.70
40702;DHT22;26387;50.114;8.662;2022-11-20T15:19:16;9.00;96.50
40702;DHT22;26387;50.114;8.662;2022-11-20T15:21:44;9.00;96.60
40702;DHT22;26387;50.114;8.662;2022-11-20T15:24:10;9.00;96.50
40702;DHT22;26387;50.114;8.662;2022-11-20T15:26:35;9.00;96.50
40702;DHT22;26387;50.114;8.662;2022-11-20T15:29:02;9.10;96.30
40702;DHT22;26387;50.114;8.662;2022-11-20T15:31:29;9.00;96.70
40702;DHT22;26387;50.114;8.662;2022-11-20T15:33:54;8.90;96.50
40702;DHT22;26387;50.114;8.662;2022-11-20T15:36:20;8.90;96.70
40702;DHT22;26387;50.114;8.662;2022-11-20T15:38:45;8.80;96.90
40702;DHT22;26387;50.114;8.662;2022-11-20T15:41:11;8.80;97.10
40702;DHT22;26387;50.114;8.662;2022-11-20T15:43:37;8.80;97.10
40702;DHT22;26387;50.114;8.662;2022-11-20T15:46:06;8.80;97.20
40702;DHT22;26387;50.114;8.662;2022-11-20T15:48:35;8.80;97.10
40702;DHT22;26387;50.114;8.662;2022-11-20T15:53:40;8.80;97.00
40702;DHT22;26387;50.114;8.662;2022-11-20T15:56:05;8.70;97.10
40702;DHT22;26387;50.114;8.662;2022-11-20T15:58:31;8.70;97.20
40702;DHT22;26387;50.114;8.662;2022-11-20T16:00:56;8.70;97.30
40702;DHT22;26387;50.114;8.662;2022-11-20T16:03:22;8.80;97.30
40702;DHT22;26387;50.114;8.662;2022-11-20T16:05:48;8.80;97.20
40702;DHT22;26387;50.114;8.662;2022-11-20T16:08:14;8.80;97.10
40702;DHT22;26387;50.114;8.662;2022-11-20T16:10:39;8.80;97.30
40702;DHT22;26387;50.114;8.662;2022-11-20T16:13:05;8.80;97.20
40702;DHT22;26387;50.114;8.662;2022-11-20T16:15:56;8.90;97.30
40702;DHT22;26387;50.114;8.662;2022-11-20T16:18:22;9.00;97.20
40702;DHT22;26387;50.114;8.662;2022-11-20T16:20:48;9.00;97.30
40702;DHT22;26387;50.114;8.662;2022-11-20T16:23:14;8.90;97.30
40702;DHT22;26387;50.114;8.662;2022-11-20T16:25:41;9.00;97.50
40702;DHT22;26387;50.114;8.662;2022-11-20T16:28:07;9.10;97.50
40702;DHT22;26387;50.114;8.662;2022-11-20T16:30:32;9.10;97.30
40702;DHT22;26387;50.114;8.662;2022-11-20T16:32:58;9.00;97.50
40702;DHT22;26387;50.114;8.662;2022-11-20T16:35:27;9.00;97.60
40702;DHT22;26387;50.114;8.662;2022-11-20T16:37:54;9.00;97.70
40702;DHT22;26387;50.114;8.662;2022-11-20T16:40:19;9.00;97.70
40702;DHT22;26387;50.114;8.662;2022-11-20T16:42:44;9.00;97.60
40702;DHT22;26387;50.114;8.662;2022-11-20T16:45:10;9.00;97.60
40702;DHT22;26387;50.114;8.662;2022-11-20T16:47:36;8.90;97.70
40702;DHT22;26387;50.114;8.662;2022-11-20T16:50:02;8.90;97.70
40702;DHT22;26387;50.114;8.662;2022-11-20T16:52:28;8.80;97.90
40702;DHT22;26387;50.114;8.662;2022-11-20T16:54:54;8.80;98.20
40702;DHT22;26387;50.114;8.662;2022-11-20T16:57:19;8.80;98.20
40702;DHT22;26387;50.114;8.662;2022-11-20T16:59:45;8.80;98.10
40702;DHT22;26387;50.114;8.662;2022-11-20T17:02:10;8.80;98.20
40702;DHT22;26387;50.114;8.662;2022-11-20T17:04:36;8.80;98.30
40702;DHT22;26387;50.114;8.662;2022-11-20T17:07:01;8.70;98.30
40702;DHT22;26387;50.114;8.662;2022-11-20T17:09:27;8.70;98.40
40702;DHT22;26387;50.114;8.662;2022-11-20T17:11:53;8.80;98.60
40702;DHT22;26387;50.114;8.662;2022-11-20T17:14:18;8.80;98.60
40702;DHT22;26387;50.114;8.662;2022-11-20T17:16:44;8.90;98.60
40702;DHT22;26387;50.114;8.662;2022-11-20T17:19:09;9.00;98.60
40702;DHT22;26387;50.114;8.662;2022-11-20T17:21:35;9.10;98.30
40702;DHT22;26387;50.114;8.662;2022-11-20T17:24:05;9.10;98.20
40702;DHT22;26387;50.114;8.662;2022-11-20T17:26:30;9.20;98.10
40702;DHT22;26387;50.114;8.662;2022-11-20T17:29:15;9.10;98.10
40702;DHT22;26387;50.114;8.662;2022-11-20T17:31:41;9.20;98.00
40702;DHT22;26387;50.114;8.662;2022-11-20T17:34:07;9.20;98.00
40702;DHT22;26387;50.114;8.662;2022-11-20T17:36:35;9.20;98.10
40702;DHT22;26387;50.114;8.662;2022-11-20T17:39:00;9.10;98.30
40702;DHT22;26387;50.114;8.662;2022-11-20T17:41:27;9.10;98.40
40702;DHT22;26387;50.114;8.662;2022-11-20T17:43:53;9.10;98.50
40702;DHT22;26387;50.114;8.662;2022-11-20T17:46:20;9.10;98.70
40702;DHT22;26387;50.114;8.662;2022-11-20T17:48:46;9.10;98.60